createdAt,value
2023-04-19T00:00:45.758Z,9.83
2023-04-19T00:03:53.400Z,9.76
2023-04-19T00:06:57.053Z,9.67
2023-04-19T00:09:59.785Z,9.60
2023-04-19T00:13:02.726Z,9.55
2023-04-19T00:16:06.255Z,9.51
2023-04-19T00:19:09.516Z,9.44
2023-04-19T00:22:12.337Z,9.36
2023-04-19T00:25:14.860Z,9.32
2023-04-19T00:28:17.601Z,9.36
2023-04-19T00:31:20.034Z,9.35
2023-04-19T00:34:22.886Z,9.27
2023-04-19T00:37:25.282Z,9.27
2023-04-19T00:40:28.790Z,9.17
2023-04-19T00:43:31.313Z,9.22
2023-04-19T00:46:34.286Z,9.25
2023-04-19T00:49:36.878Z,9.32
2023-04-19T00:52:40.316Z,9.28
2023-04-19T00:55:43.425Z,9.31
2023-04-19T00:58:46.730Z,9.28
2023-04-19T01:01:49.165Z,9.22
2023-04-19T01:04:53.112Z,9.10
2023-04-19T01:07:55.495Z,9.11
2023-04-19T01:10:58.386Z,9.09
2023-04-19T01:14:00.723Z,9.09
2023-04-19T01:17:03.736Z,9.06
2023-04-19T01:20:08.301Z,9.08
2023-04-19T01:23:13.787Z,9.13
2023-04-19T01:26:16.556Z,9.08
2023-04-19T01:29:21.052Z,9.05
2023-04-19T01:32:23.538Z,9.03
2023-04-19T01:35:26.505Z,9.02
2023-04-19T01:38:29.030Z,8.98
2023-04-19T01:41:32.624Z,8.99
2023-04-19T01:44:35.058Z,8.97
2023-04-19T01:47:37.783Z,8.90
2023-04-19T01:50:40.186Z,8.76
2023-04-19T01:53:43.142Z,8.83
2023-04-19T01:56:45.815Z,8.87
2023-04-19T01:59:48.619Z,8.80
2023-04-19T02:02:51.355Z,8.79
2023-04-19T02:05:54.094Z,8.77
2023-04-19T02:08:57.883Z,8.85
2023-04-19T02:12:00.549Z,8.87
2023-04-19T02:15:03.577Z,8.95
2023-04-19T02:18:07.240Z,8.84
2023-04-19T02:21:11.199Z,8.86
2023-04-19T02:24:14.169Z,8.82
2023-04-19T02:27:18.116Z,8.80
2023-04-19T02:30:20.888Z,8.81
2023-04-19T02:33:23.632Z,8.86
2023-04-19T02:36:26.831Z,8.88
2023-04-19T02:39:30.681Z,8.87
2023-04-19T02:42:33.618Z,8.85
2023-04-19T02:45:37.456Z,8.87
2023-04-19T02:48:40.188Z,8.91
2023-04-19T02:51:42.682Z,8.92
2023-04-19T02:54:47.030Z,8.87
2023-04-19T02:57:49.544Z,8.89
2023-04-19T03:00:52.376Z,8.82
2023-04-19T03:03:57.534Z,8.86
2023-04-19T03:07:00.820Z,8.80
2023-04-19T03:10:03.663Z,8.80
2023-04-19T03:13:07.629Z,8.76
2023-04-19T03:16:10.454Z,8.72
2023-04-19T03:19:13.441Z,8.76
2023-04-19T03:22:22.546Z,8.77
2023-04-19T03:25:25.480Z,8.72
2023-04-19T03:28:36.454Z,8.73
2023-04-19T03:31:59.866Z,8.73
2023-04-19T03:35:03.371Z,8.68
2023-04-19T03:38:06.249Z,8.68
2023-04-19T03:41:19.221Z,8.58
2023-04-19T03:44:22.736Z,8.60
2023-04-19T03:47:25.243Z,8.69
2023-04-19T03:50:31.677Z,8.66
2023-04-19T03:53:35.568Z,8.67
2023-04-19T03:56:38.297Z,8.66
2023-04-19T03:59:41.683Z,8.66
2023-04-19T04:02:45.762Z,8.67
2023-04-19T04:05:49.115Z,8.61
2023-04-19T04:08:52.017Z,8.58
2023-04-19T04:11:54.472Z,8.68
2023-04-19T04:14:57.645Z,8.73
2023-04-19T04:18:01.268Z,8.74
2023-04-19T04:21:04.243Z,8.76
2023-04-19T04:24:08.187Z,8.77
2023-04-19T04:27:36.305Z,8.74
2023-04-19T04:30:41.035Z,8.66
2023-04-19T04:33:46.247Z,8.69
2023-04-19T04:36:50.864Z,8.73
2023-04-19T04:39:55.918Z,8.72
2023-04-19T04:43:01.230Z,8.81
2023-04-19T04:46:04.667Z,8.87
2023-04-19T04:49:13.648Z,8.80
2023-04-19T04:52:18.840Z,8.88
2023-04-19T04:55:50.517Z,8.85
2023-04-19T04:58:54.273Z,8.89
2023-04-19T05:02:03.411Z,8.95
2023-04-19T05:05:06.589Z,9.00
2023-04-19T05:08:08.902Z,8.93
2023-04-19T05:11:12.099Z,8.87
2023-04-19T05:14:14.914Z,8.82
2023-04-19T05:17:18.904Z,8.83
2023-04-19T05:20:21.994Z,8.76
2023-04-19T05:23:29.870Z,8.77
2023-04-19T05:26:33.238Z,8.83
2023-04-19T05:29:37.365Z,8.85
2023-04-19T05:32:40.614Z,8.88
2023-04-19T05:35:45.593Z,8.81
2023-04-19T05:38:48.031Z,8.76
2023-04-19T05:41:51.148Z,8.83
2023-04-19T05:44:53.522Z,8.83
2023-04-19T05:47:56.541Z,8.89
2023-04-19T05:51:21.832Z,8.83
2023-04-19T05:54:36.303Z,8.93
2023-04-19T05:57:40.276Z,8.94
2023-04-19T06:00:43.626Z,8.94
2023-04-19T06:03:53.741Z,8.89
2023-04-19T06:06:57.659Z,8.98
2023-04-19T06:10:00.163Z,8.96
2023-04-19T06:13:02.896Z,8.93
2023-04-19T06:16:06.028Z,8.99
2023-04-19T06:19:10.025Z,9.02
2023-04-19T06:22:12.536Z,9.01
2023-04-19T06:25:15.474Z,9.03
2023-04-19T06:28:17.903Z,9.06
2023-04-19T06:31:20.762Z,9.12
2023-04-19T06:34:23.220Z,9.14
2023-04-19T06:37:26.077Z,9.21
2023-04-19T06:40:31.926Z,9.31
2023-04-19T06:43:34.946Z,9.36
2023-04-19T06:46:37.495Z,9.38
2023-04-19T06:49:40.207Z,9.40
2023-04-19T06:52:42.696Z,9.47
2023-04-19T06:55:46.395Z,9.38
2023-04-19T06:58:48.898Z,9.45
2023-04-19T07:01:52.103Z,9.51
2023-04-19T07:04:54.508Z,9.46
2023-04-19T07:07:57.737Z,9.49
2023-04-19T07:11:00.361Z,9.56
2023-04-19T07:14:03.082Z,9.51
2023-04-19T07:17:06.289Z,9.55
2023-04-19T07:20:09.658Z,9.60
2023-04-19T07:23:12.164Z,9.59
2023-04-19T07:26:15.228Z,9.61
2023-04-19T07:29:17.956Z,9.65
2023-04-19T07:32:21.196Z,9.73
2023-04-19T07:35:23.751Z,9.83
2023-04-19T07:38:26.530Z,9.93
2023-04-19T07:41:29.219Z,9.86
2023-04-19T07:44:32.614Z,9.99
2023-04-19T07:47:35.137Z,9.91
2023-04-19T07:50:37.893Z,9.96
2023-04-19T07:53:41.949Z,10.01
2023-04-19T07:56:44.737Z,9.92
2023-04-19T07:59:47.209Z,9.92
2023-04-19T08:02:50.360Z,9.91
2023-04-19T08:05:52.962Z,9.83
2023-04-19T08:08:55.699Z,9.85
2023-04-19T08:11:58.567Z,9.90
2023-04-19T08:15:09.890Z,9.91
2023-04-19T08:18:22.866Z,9.94
2023-04-19T08:21:34.679Z,9.93
2023-04-19T08:24:43.871Z,10.01
2023-04-19T08:27:46.651Z,10.03
2023-04-19T08:30:49.524Z,10.02
2023-04-19T08:33:52.257Z,10.11
2023-04-19T08:37:03.205Z,10.32
2023-04-19T08:40:07.380Z,10.41
2023-04-19T08:43:09.834Z,10.57
2023-04-19T08:46:12.963Z,10.59
2023-04-19T08:49:15.727Z,10.52
2023-04-19T08:52:19.112Z,10.55
2023-04-19T08:55:21.867Z,10.63
2023-04-19T08:58:36.535Z,10.64
2023-04-19T09:01:48.794Z,10.90
2023-04-19T09:04:51.864Z,10.89
2023-04-19T09:07:54.416Z,10.97
2023-04-19T09:11:01.785Z,11.06
2023-04-19T09:14:23.087Z,10.99
2023-04-19T09:17:25.970Z,11.03
2023-04-19T09:20:37.617Z,11.18
2023-04-19T09:23:47.279Z,11.12
2023-04-19T09:26:56.223Z,11.17
2023-04-19T09:30:01.068Z,11.12
2023-04-19T09:33:03.926Z,11.15
2023-04-19T09:36:07.850Z,11.05
2023-04-19T09:39:11.052Z,11.01
2023-04-19T09:42:15.703Z,11.05
2023-04-19T09:48:23.808Z,10.97
2023-04-19T09:51:40.730Z,11.03
2023-04-19T09:54:43.657Z,10.90
2023-04-19T09:57:46.103Z,10.87
2023-04-19T10:00:54.994Z,10.90
2023-04-19T10:04:19.891Z,11.14
2023-04-19T10:07:30.707Z,11.28
2023-04-19T10:10:41.994Z,11.49
2023-04-19T10:13:47.643Z,11.42
2023-04-19T10:16:50.117Z,11.45
2023-04-19T10:20:07.130Z,11.50
2023-04-19T10:23:10.265Z,11.50
2023-04-19T10:26:13.075Z,11.51
2023-04-19T10:29:15.772Z,11.51
2023-04-19T10:32:18.692Z,11.36
2023-04-19T10:35:26.255Z,11.27
2023-04-19T10:38:48.284Z,11.18
2023-04-19T10:41:59.723Z,11.14
2023-04-19T10:45:34.739Z,11.13
2023-04-19T10:48:38.979Z,11.11
2023-04-19T10:51:48.744Z,11.14
2023-04-19T10:54:56.485Z,11.18
2023-04-19T10:58:05.796Z,11.17
2023-04-19T11:01:46.528Z,11.13
2023-04-19T11:04:49.376Z,11.21
2023-04-19T11:07:52.175Z,11.36
2023-04-19T11:10:57.060Z,11.61
2023-04-19T11:14:02.637Z,11.78
2023-04-19T11:17:28.533Z,11.75
2023-04-19T11:20:31.293Z,11.70
2023-04-19T11:23:34.020Z,11.78
2023-04-19T11:26:36.510Z,11.96
2023-04-19T11:29:39.259Z,11.96
2023-04-19T11:32:46.362Z,12.00
2023-04-19T11:35:49.048Z,12.09
2023-04-19T11:38:53.140Z,12.14
2023-04-19T11:41:56.609Z,12.15
2023-04-19T11:45:00.190Z,12.09
2023-04-19T11:48:07.845Z,12.18
2023-04-19T11:51:11.940Z,12.20
2023-04-19T11:54:18.568Z,12.20
2023-04-19T11:57:31.493Z,12.11
2023-04-19T12:00:34.313Z,12.34
2023-04-19T12:03:50.827Z,12.58
2023-04-19T12:07:01.622Z,12.68
2023-04-19T12:10:11.921Z,12.80
2023-04-19T12:13:18.657Z,12.86
2023-04-19T12:16:28.362Z,12.93
2023-04-19T12:19:36.601Z,13.09
2023-04-19T12:22:39.015Z,13.33
2023-04-19T12:25:42.777Z,13.49
2023-04-19T12:28:45.495Z,13.56
2023-04-19T12:31:48.189Z,13.56
2023-04-19T12:34:50.609Z,13.41
2023-04-19T12:37:54.286Z,13.46
2023-04-19T12:40:56.896Z,13.53
2023-04-19T12:43:59.596Z,13.51
2023-04-19T12:47:02.015Z,13.47
2023-04-19T12:50:05.119Z,13.39
2023-04-19T12:53:07.536Z,13.35
2023-04-19T12:56:10.417Z,13.39
2023-04-19T12:59:12.822Z,13.46
2023-04-19T13:02:15.580Z,13.59
2023-04-19T13:05:18.123Z,13.72
2023-04-19T13:08:28.246Z,13.68
2023-04-19T13:11:36.720Z,13.70
2023-04-19T13:14:39.447Z,13.62
2023-04-19T13:17:41.801Z,13.65
2023-04-19T13:20:44.502Z,13.57
2023-04-19T13:23:46.995Z,13.54
2023-04-19T13:26:49.804Z,13.58
2023-04-19T13:29:52.163Z,13.58
2023-04-19T13:32:54.934Z,13.67
2023-04-19T13:35:57.452Z,13.78
2023-04-19T13:39:00.202Z,13.65
2023-04-19T13:42:02.654Z,13.89
2023-04-19T13:45:05.907Z,13.95
2023-04-19T13:48:08.348Z,14.01
2023-04-19T13:51:11.156Z,14.08
2023-04-19T13:54:13.608Z,14.13
2023-04-19T13:57:16.566Z,14.11
2023-04-19T14:00:19.521Z,13.93
2023-04-19T14:03:23.605Z,13.95
2023-04-19T14:06:26.657Z,13.98
2023-04-19T14:09:29.390Z,14.04
2023-04-19T14:12:31.848Z,14.10
2023-04-19T14:15:34.805Z,14.07
2023-04-19T14:18:37.212Z,14.06
2023-04-19T14:21:40.009Z,14.05
2023-04-19T14:24:42.579Z,14.14
2023-04-19T14:27:45.522Z,14.27
2023-04-19T14:30:47.899Z,14.29
2023-04-19T14:33:51.837Z,14.46
2023-04-19T14:36:54.250Z,14.67
2023-04-19T14:39:57.007Z,14.71
2023-04-19T14:42:59.407Z,14.53
2023-04-19T14:46:02.186Z,14.40
2023-04-19T14:49:06.223Z,14.47
2023-04-19T14:52:09.016Z,14.64
2023-04-19T14:55:11.984Z,14.69
2023-04-19T14:58:14.718Z,14.79
2023-04-19T15:01:17.174Z,14.82
2023-04-19T15:04:20.301Z,14.74
2023-04-19T15:07:22.756Z,14.79
2023-04-19T15:10:27.929Z,14.84
2023-04-19T15:13:30.328Z,14.95
2023-04-19T15:16:33.323Z,14.88
2023-04-19T15:19:35.738Z,14.93
2023-04-19T15:22:38.550Z,14.96
2023-04-19T15:25:41.808Z,14.87
2023-04-19T15:28:44.563Z,14.81
2023-04-19T15:31:47.035Z,14.76
2023-04-19T15:34:49.756Z,14.27
2023-04-19T15:37:52.181Z,13.86
2023-04-19T15:40:56.296Z,13.53
2023-04-19T15:43:58.787Z,13.25
2023-04-19T15:47:01.670Z,13.15
2023-04-19T15:50:05.052Z,12.87
2023-04-19T15:53:09.089Z,12.56
2023-04-19T15:56:11.719Z,12.54
2023-04-19T15:59:17.322Z,12.51
2023-04-19T16:02:21.312Z,12.55
2023-04-19T16:05:24.286Z,12.59
2023-04-19T16:08:26.591Z,12.62
2023-04-19T16:11:29.893Z,12.64
2023-04-19T16:14:32.189Z,12.64
2023-04-19T16:17:35.173Z,12.65
2023-04-19T16:20:38.291Z,12.59
2023-04-19T16:23:41.314Z,12.58
2023-04-19T16:26:43.729Z,12.55
2023-04-19T16:29:46.488Z,12.49
2023-04-19T16:32:48.902Z,12.49
2023-04-19T16:35:51.895Z,12.37
2023-04-19T16:38:54.349Z,12.32
2023-04-19T16:41:56.970Z,12.14
2023-04-19T16:44:59.931Z,12.06
2023-04-19T16:48:03.232Z,12.00
2023-04-19T16:51:06.164Z,11.96
2023-04-19T16:54:10.105Z,11.85
2023-04-19T16:57:12.951Z,11.79
2023-04-19T17:00:16.376Z,11.78
2023-04-19T17:03:19.124Z,11.77
2023-04-19T17:06:22.109Z,11.73
2023-04-19T17:09:25.009Z,11.71
2023-04-19T17:12:28.162Z,11.69
2023-04-19T17:15:31.768Z,11.65
2023-04-19T17:18:35.021Z,11.60
2023-04-19T17:21:38.039Z,11.57
2023-04-19T17:24:41.508Z,11.57
2023-04-19T17:27:44.117Z,11.52
2023-04-19T17:30:47.372Z,11.47
2023-04-19T17:33:50.214Z,11.45
2023-04-19T17:36:56.608Z,11.39
2023-04-19T17:40:00.591Z,11.30
2023-04-19T17:43:03.959Z,11.23
2023-04-19T17:46:07.000Z,11.15
2023-04-19T17:49:10.526Z,11.06
2023-04-19T17:52:14.123Z,10.96
2023-04-19T17:55:18.708Z,10.86
2023-04-19T17:58:24.131Z,10.81
2023-04-19T18:01:28.158Z,10.75
2023-04-19T18:04:34.780Z,10.65
2023-04-19T18:07:39.725Z,10.58
2023-04-19T18:10:42.952Z,10.38
2023-04-19T18:13:47.082Z,10.37
2023-04-19T18:16:50.811Z,10.21
2023-04-19T18:19:55.095Z,10.11
2023-04-19T18:23:00.799Z,10.02
2023-04-19T18:26:05.203Z,9.95
2023-04-19T18:29:10.329Z,9.82
2023-04-19T18:32:17.300Z,9.70
2023-04-19T18:35:23.467Z,9.71
2023-04-19T18:38:27.900Z,9.65
2023-04-19T18:41:32.216Z,9.57
2023-04-19T18:47:48.489Z,9.42
2023-04-19T18:50:52.774Z,9.38
2023-04-19T18:53:56.788Z,9.33
2023-04-19T18:57:19.122Z,9.33
2023-04-19T19:00:25.753Z,9.37
2023-04-19T19:03:58.060Z,9.37
2023-04-19T19:06:58.342Z,9.38
2023-04-19T19:10:09.594Z,9.41
2023-04-19T19:13:24.438Z,9.44
2023-04-19T19:16:30.999Z,9.45
2023-04-19T19:19:35.423Z,9.45
2023-04-19T19:22:43.230Z,9.43
2023-04-19T19:25:50.900Z,9.38
2023-04-19T19:28:57.639Z,9.42
2023-04-19T19:32:02.853Z,9.44
2023-04-19T19:35:11.815Z,9.48
2023-04-19T19:38:15.782Z,9.55
2023-04-19T19:44:28.868Z,9.53
2023-04-19T19:47:35.668Z,9.54
2023-04-19T19:53:50.230Z,9.59
2023-04-19T19:57:31.713Z,9.62
2023-04-19T20:00:39.910Z,9.59
2023-04-19T20:03:43.589Z,9.61
2023-04-19T20:09:56.686Z,9.57
2023-04-19T20:13:02.155Z,9.57
2023-04-19T20:16:07.554Z,9.55
2023-04-19T20:19:13.039Z,9.58
2023-04-19T20:22:16.968Z,9.61
2023-04-19T20:25:20.583Z,9.58
2023-04-19T20:28:25.669Z,9.56
2023-04-19T20:31:31.636Z,9.57
2023-04-19T20:34:35.531Z,9.56
2023-04-19T20:37:45.860Z,9.65
2023-04-19T20:40:49.922Z,9.67
2023-04-19T20:43:53.338Z,9.71
2023-04-19T20:46:58.947Z,9.73
2023-04-19T20:50:03.436Z,9.70
2023-04-19T20:53:07.985Z,9.69
2023-04-19T20:56:11.660Z,9.73
2023-04-19T20:59:14.658Z,9.73
2023-04-19T21:02:17.804Z,9.77
2023-04-19T21:05:20.744Z,9.73
2023-04-19T21:08:24.535Z,9.74
2023-04-19T21:11:26.997Z,9.72
2023-04-19T21:14:38.658Z,9.69
2023-04-19T21:17:41.469Z,9.69
2023-04-19T21:20:44.222Z,9.67
2023-04-19T21:23:46.500Z,9.66
2023-04-19T21:26:49.226Z,9.72
2023-04-19T21:29:51.581Z,9.73
2023-04-19T21:32:54.325Z,9.74
2023-04-19T21:35:56.809Z,9.73
2023-04-19T21:38:59.462Z,9.75
2023-04-19T21:42:01.932Z,9.74
2023-04-19T21:45:05.136Z,9.75
2023-04-19T21:48:07.639Z,9.73
2023-04-19T21:51:11.686Z,9.73
2023-04-19T21:54:23.166Z,9.69
2023-04-19T21:57:33.684Z,9.67
2023-04-19T22:00:36.420Z,9.63
2023-04-19T22:03:39.560Z,9.60
2023-04-19T22:06:46.202Z,9.63
2023-04-19T22:09:48.907Z,9.51
2023-04-19T22:12:58.434Z,9.47
2023-04-19T22:16:02.638Z,9.49
2023-04-19T22:19:05.605Z,9.45
2023-04-19T22:22:08.295Z,9.39
2023-04-19T22:25:11.278Z,9.45
2023-04-19T22:28:14.134Z,9.47
2023-04-19T22:31:16.661Z,9.49
2023-04-19T22:34:19.341Z,9.49
2023-04-19T22:37:22.543Z,9.50
2023-04-19T22:40:25.356Z,9.49
2023-04-19T22:43:27.995Z,9.46
2023-04-19T22:46:30.939Z,9.48
2023-04-19T22:49:33.582Z,9.47
2023-04-19T22:52:36.210Z,9.48
2023-04-19T22:55:39.789Z,9.47
2023-04-19T22:58:42.394Z,9.45
2023-04-19T23:01:45.068Z,9.48
2023-04-19T23:04:49.272Z,9.44
2023-04-19T23:07:52.038Z,9.33
2023-04-19T23:10:55.256Z,9.28
2023-04-19T23:13:57.806Z,9.27
2023-04-19T23:17:02.924Z,8.94
2023-04-19T23:20:12.958Z,8.85
2023-04-19T23:23:15.673Z,8.92
2023-04-19T23:26:18.029Z,8.89
2023-04-19T23:29:20.752Z,8.88
2023-04-19T23:32:23.162Z,8.83
2023-04-19T23:35:26.053Z,8.82
2023-04-19T23:38:28.432Z,8.84
2023-04-19T23:41:31.378Z,8.87
2023-04-19T23:44:33.695Z,8.87
2023-04-19T23:47:36.337Z,8.80
2023-04-19T23:50:38.733Z,8.72
2023-04-19T23:53:41.664Z,8.73
2023-04-19T23:56:45.655Z,8.73
2023-04-19T23:59:48.445Z,8.59
